createdAt,value
2019-01-05T00:00:00.321Z,32.87
2019-01-05T00:02:36.753Z,32.53
2019-01-05T00:05:09.913Z,32.80
2019-01-05T00:07:34.055Z,29.60
2019-01-05T00:10:16.615Z,30.30
2019-01-05T00:12:40.982Z,28.63
2019-01-05T00:15:07.599Z,28.17
2019-01-05T00:17:29.909Z,30.40
2019-01-05T00:20:03.526Z,27.77
2019-01-05T00:22:27.366Z,27.20
2019-01-05T00:24:51.613Z,26.90
2019-01-05T00:27:14.522Z,27.40
2019-01-05T00:29:57.280Z,26.57
2019-01-05T00:32:41.668Z,26.73
2019-01-05T00:35:11.751Z,23.70
2019-01-05T00:37:39.314Z,22.77
2019-01-05T00:40:17.156Z,24.40
2019-01-05T00:42:43.916Z,22.93
2019-01-05T00:45:06.912Z,22.37
2019-01-05T00:47:50.088Z,21.50
2019-01-05T00:50:26.542Z,21.23
2019-01-05T00:52:56.714Z,21.40
2019-01-05T00:55:20.988Z,21.20
2019-01-05T00:57:52.730Z,19.40
2019-01-05T01:00:31.815Z,19.70
2019-01-05T01:03:07.943Z,20.30
2019-01-05T01:05:49.838Z,20.13
2019-01-05T01:08:13.700Z,19.67
2019-01-05T01:10:38.088Z,20.47
2019-01-05T01:13:05.134Z,19.83
2019-01-05T01:15:28.902Z,18.67
2019-01-05T01:17:51.390Z,19.23
2019-01-05T01:20:27.711Z,18.40
2019-01-05T01:22:50.498Z,17.53
2019-01-05T01:25:13.301Z,18.87
2019-01-05T01:27:36.121Z,16.20
2019-01-05T01:30:06.298Z,15.80
2019-01-05T01:32:29.021Z,15.87
2019-01-05T01:34:51.952Z,17.70
2019-01-05T01:37:16.135Z,17.07
2019-01-05T01:39:54.049Z,17.07
2019-01-05T01:42:33.870Z,16.83
2019-01-05T01:45:03.896Z,15.80
2019-01-05T01:47:27.940Z,17.60
2019-01-05T01:49:55.797Z,15.63
2019-01-05T01:52:29.950Z,15.93
2019-01-05T01:54:54.742Z,14.70
2019-01-05T01:57:21.290Z,15.57
2019-01-05T02:00:32.591Z,15.23
2019-01-05T02:03:09.818Z,13.00
2019-01-05T02:05:37.070Z,14.00
2019-01-05T02:08:00.695Z,14.53
2019-01-05T02:10:24.560Z,14.73
2019-01-05T02:13:02.245Z,13.90
2019-01-05T02:15:29.552Z,13.60
2019-01-05T02:18:11.969Z,13.90
2019-01-05T02:21:17.498Z,14.03
2019-01-05T02:24:45.791Z,13.97
2019-01-05T02:28:06.134Z,13.53
2019-01-05T02:31:13.416Z,13.00
2019-01-05T02:34:07.854Z,12.10
2019-01-05T02:37:29.317Z,13.30
2019-01-05T02:40:46.760Z,12.27
2019-01-05T02:44:02.435Z,11.77
2019-01-05T02:47:29.969Z,13.47
2019-01-05T02:50:58.547Z,11.60
2019-01-05T02:53:57.581Z,11.80
2019-01-05T02:57:05.275Z,12.17
2019-01-05T02:59:57.095Z,12.97
2019-01-05T03:02:49.650Z,11.97
2019-01-05T03:05:32.972Z,12.37
2019-01-05T03:08:57.668Z,12.50
2019-01-05T03:12:01.888Z,12.10
2019-01-05T03:14:41.879Z,12.60
2019-01-05T03:17:33.713Z,13.90
2019-01-05T03:20:20.353Z,12.43
2019-01-05T03:23:20.100Z,13.43
2019-01-05T03:26:45.686Z,12.77
2019-01-05T03:29:47.484Z,12.30
2019-01-05T03:32:43.080Z,12.60
2019-01-05T03:36:01.170Z,12.83
2019-01-05T03:38:56.573Z,11.43
2019-01-05T03:42:08.253Z,10.80
2019-01-05T03:45:16.876Z,12.10
2019-01-05T03:48:31.408Z,11.53
2019-01-05T03:51:53.244Z,11.00
2019-01-05T03:55:33.741Z,10.50
2019-01-05T03:58:27.579Z,10.60
2019-01-05T04:01:22.641Z,10.17
2019-01-05T04:04:23.510Z,10.00
2019-01-05T04:07:37.689Z,9.30
2019-01-05T04:10:54.569Z,9.17
2019-01-05T04:13:47.543Z,9.50
2019-01-05T04:17:15.984Z,8.93
2019-01-05T04:20:45.250Z,9.27
2019-01-05T04:23:51.703Z,9.50
2019-01-05T04:26:47.518Z,8.97
2019-01-05T04:29:47.556Z,8.90
2019-01-05T04:33:11.845Z,9.07
2019-01-05T04:36:52.681Z,7.97
2019-01-05T04:39:52.251Z,7.97
2019-01-05T04:42:55.350Z,6.67
2019-01-05T04:45:58.791Z,7.57
2019-01-05T04:49:08.236Z,7.90
2019-01-05T04:52:07.125Z,7.23
2019-01-05T04:55:16.450Z,7.10
2019-01-05T04:58:15.304Z,7.27
2019-01-05T05:01:26.951Z,6.50
2019-01-05T05:04:31.727Z,7.33
2019-01-05T05:07:51.615Z,7.63
2019-01-05T05:11:17.263Z,7.80
2019-01-05T05:14:14.119Z,7.43
2019-01-05T05:17:26.493Z,8.30
2019-01-05T05:20:35.912Z,7.33
2019-01-05T05:23:57.381Z,7.10
2019-01-05T05:27:16.973Z,8.70
2019-01-05T05:30:13.595Z,8.30
2019-01-05T05:33:24.237Z,8.27
2019-01-05T05:36:45.857Z,7.80
2019-01-05T05:39:52.785Z,8.53
2019-01-05T05:42:50.909Z,8.80
2019-01-05T05:45:56.260Z,8.23
2019-01-05T05:49:04.367Z,6.90
2019-01-05T05:52:25.995Z,7.50
2019-01-05T05:55:42.629Z,8.00
2019-01-05T05:58:44.766Z,8.30
2019-01-05T06:02:04.341Z,7.00
2019-01-05T06:05:15.706Z,6.50
2019-01-05T06:08:14.597Z,6.30
2019-01-05T06:11:06.606Z,6.90
2019-01-05T06:14:18.239Z,6.67
2019-01-05T06:17:17.041Z,6.50
2019-01-05T06:20:30.511Z,5.80
2019-01-05T06:23:19.408Z,6.33
2019-01-05T06:26:43.536Z,6.23
2019-01-05T06:29:47.222Z,5.40
2019-01-05T06:32:56.246Z,5.80
2019-01-05T06:35:52.796Z,5.37
2019-01-05T06:39:08.068Z,5.17
2019-01-05T06:42:06.334Z,5.00
2019-01-05T06:45:23.308Z,4.57
2019-01-05T06:48:29.464Z,5.27
2019-01-05T06:51:47.651Z,4.50
2019-01-05T06:55:22.786Z,5.37
2019-01-05T06:58:35.896Z,6.30
2019-01-05T07:02:05.642Z,6.00
2019-01-05T07:05:30.437Z,8.90
2019-01-05T07:08:48.089Z,6.73
2019-01-05T07:11:42.602Z,6.33
2019-01-05T07:15:03.636Z,8.57
2019-01-05T07:18:05.822Z,5.57
2019-01-05T07:21:22.461Z,8.03
2019-01-05T07:24:34.626Z,4.47
2019-01-05T07:27:33.352Z,4.33
2019-01-05T07:30:32.391Z,8.40
2019-01-05T07:33:59.003Z,4.97
2019-01-05T07:37:09.826Z,5.57
2019-01-05T07:40:21.260Z,6.47
2019-01-05T07:43:40.995Z,5.83
2019-01-05T07:46:53.203Z,5.20
2019-01-05T07:50:09.807Z,6.30
2019-01-05T07:53:15.998Z,6.00
2019-01-05T07:56:39.836Z,5.67
2019-01-05T07:59:44.089Z,5.13
2019-01-05T08:03:05.347Z,4.77
2019-01-05T08:06:00.024Z,7.20
2019-01-05T08:09:19.471Z,6.97
2019-01-05T08:12:39.421Z,5.63
2019-01-05T08:15:47.794Z,6.23
2019-01-05T08:19:31.121Z,5.27
2019-01-05T08:22:48.315Z,5.50
2019-01-05T08:25:52.174Z,5.00
2019-01-05T08:29:00.650Z,6.20
2019-01-05T08:32:17.331Z,6.13
2019-01-05T08:35:22.992Z,7.03
2019-01-05T08:41:17.603Z,5.30
2019-01-05T08:44:27.043Z,5.53
2019-01-05T08:47:47.162Z,5.60
2019-01-05T08:51:04.308Z,4.43
2019-01-05T08:54:21.675Z,5.13
2019-01-05T08:57:32.632Z,4.93
2019-01-05T09:00:31.503Z,3.80
2019-01-05T09:03:43.887Z,3.97
2019-01-05T09:07:02.952Z,4.00
2019-01-05T09:10:13.078Z,4.70
2019-01-05T09:13:24.977Z,3.93
2019-01-05T09:16:35.379Z,3.10
2019-01-05T09:19:37.697Z,3.93
2019-01-05T09:25:49.916Z,4.90
2019-01-05T09:29:14.934Z,5.30
2019-01-05T09:32:16.885Z,7.43
2019-01-05T09:35:27.514Z,5.93
2019-01-05T09:38:39.034Z,4.50
2019-01-05T09:41:47.634Z,4.53
2019-01-05T09:44:46.155Z,3.70
2019-01-05T09:48:01.658Z,4.80
2019-01-05T09:51:06.392Z,4.30
2019-01-05T09:54:19.518Z,4.53
2019-01-05T09:57:28.670Z,3.80
2019-01-05T10:00:27.317Z,4.60
2019-01-05T10:03:28.073Z,4.00
2019-01-05T10:06:40.043Z,4.10
2019-01-05T10:09:49.338Z,4.50
2019-01-05T10:12:54.764Z,4.00
2019-01-05T10:16:08.278Z,4.50
2019-01-05T10:19:16.894Z,4.70
2019-01-05T10:22:24.220Z,4.47
2019-01-05T10:25:34.562Z,4.50
2019-01-05T10:28:47.274Z,3.97
2019-01-05T10:32:05.721Z,4.17
2019-01-05T10:35:30.534Z,5.33
2019-01-05T10:38:20.902Z,4.87
2019-01-05T10:41:37.195Z,5.03
2019-01-05T10:44:43.227Z,5.87
2019-01-05T10:47:33.923Z,4.80
2019-01-05T10:51:02.375Z,5.05
2019-01-05T10:54:27.906Z,5.50
2019-01-05T10:57:45.254Z,6.10
2019-01-05T11:01:02.445Z,5.00
2019-01-05T11:04:04.455Z,5.50
2019-01-05T11:07:27.753Z,4.60
2019-01-05T11:10:51.916Z,4.53
2019-01-05T11:14:07.149Z,4.07
2019-01-05T11:17:14.515Z,4.63
2019-01-05T11:20:35.757Z,4.57
2019-01-05T11:23:54.159Z,4.83
2019-01-05T11:27:05.415Z,4.33
2019-01-05T11:30:21.528Z,4.00
2019-01-05T11:33:19.663Z,3.90
2019-01-05T11:36:24.442Z,3.93
2019-01-05T11:39:43.718Z,3.60
2019-01-05T11:42:57.536Z,4.40
2019-01-05T11:45:53.108Z,3.63
2019-01-05T11:48:59.064Z,5.03
2019-01-05T11:52:07.952Z,4.40
2019-01-05T11:55:17.546Z,4.27
2019-01-05T11:58:36.725Z,4.83
2019-01-05T12:01:24.524Z,5.13
2019-01-05T12:04:56.301Z,4.50
2019-01-05T12:08:15.900Z,4.97
2019-01-05T12:11:35.462Z,5.27
2019-01-05T12:14:21.611Z,4.70
2019-01-05T12:17:43.027Z,4.10
2019-01-05T12:20:50.553Z,4.10
2019-01-05T12:23:48.767Z,3.60
2019-01-05T12:27:06.770Z,3.70
2019-01-05T12:30:25.539Z,4.50
2019-01-05T12:33:37.154Z,3.60
2019-01-05T12:36:38.059Z,4.13
2019-01-05T12:39:44.854Z,4.60
2019-01-05T12:43:02.604Z,4.03
2019-01-05T12:46:11.361Z,4.43
2019-01-05T12:49:04.436Z,3.30
2019-01-05T12:52:04.901Z,4.40
2019-01-05T12:55:07.696Z,3.20
2019-01-05T12:58:05.766Z,3.97
2019-01-05T13:01:11.835Z,3.03
2019-01-05T13:04:24.153Z,3.30
2019-01-05T13:07:41.353Z,3.20
2019-01-05T13:10:49.105Z,3.00
2019-01-05T13:13:50.709Z,2.97
2019-01-05T13:17:18.435Z,2.80
2019-01-05T13:20:17.145Z,2.93
2019-01-05T13:23:51.868Z,2.53
2019-01-05T13:27:12.044Z,2.63
2019-01-05T13:30:36.024Z,2.57
2019-01-05T13:33:44.129Z,2.30
2019-01-05T13:36:50.413Z,2.33
2019-01-05T13:40:00.137Z,2.10
2019-01-05T13:43:20.738Z,1.90
2019-01-05T13:46:35.215Z,1.83
2019-01-05T13:49:47.734Z,1.90
2019-01-05T13:53:09.324Z,2.00
2019-01-05T13:55:39.056Z,2.20
2019-01-05T13:58:05.724Z,2.20
2019-01-05T14:00:30.288Z,1.83
2019-01-05T14:02:52.668Z,1.77
2019-01-05T14:05:14.907Z,3.10
2019-01-05T14:07:41.712Z,2.77
2019-01-05T14:10:04.179Z,2.60
2019-01-05T14:12:26.874Z,2.57
2019-01-05T14:14:49.393Z,2.33
2019-01-05T14:17:21.916Z,2.73
2019-01-05T14:19:45.701Z,2.33
2019-01-05T14:22:08.622Z,2.60
2019-01-05T14:24:31.282Z,2.07
2019-01-05T14:26:54.653Z,2.50
2019-01-05T14:29:21.078Z,2.13
2019-01-05T14:31:43.593Z,2.40
2019-01-05T14:34:25.377Z,3.20
2019-01-05T14:36:50.643Z,3.83
2019-01-05T14:39:14.767Z,2.40
2019-01-05T14:41:37.252Z,2.20
2019-01-05T14:44:06.726Z,3.30
2019-01-05T14:46:34.211Z,2.70
2019-01-05T14:49:00.563Z,3.33
2019-01-05T14:51:24.230Z,3.30
2019-01-05T14:53:56.759Z,3.00
2019-01-05T14:56:20.400Z,2.80
2019-01-05T14:58:52.743Z,3.23
2019-01-05T15:01:19.119Z,3.33
2019-01-05T15:03:49.189Z,3.83
2019-01-05T15:06:31.053Z,3.37
2019-01-05T15:08:56.524Z,3.70
2019-01-05T15:11:19.291Z,3.83
2019-01-05T15:13:51.901Z,4.23
2019-01-05T15:16:14.347Z,3.60
2019-01-05T15:18:37.883Z,3.50
2019-01-05T15:21:04.701Z,3.50
2019-01-05T15:23:31.504Z,4.10
2019-01-05T15:25:53.958Z,3.83
2019-01-05T15:28:32.743Z,4.23
2019-01-05T15:30:59.851Z,3.87
2019-01-05T15:33:22.121Z,4.40
2019-01-05T15:35:44.880Z,4.13
2019-01-05T15:38:14.323Z,4.40
2019-01-05T15:40:40.746Z,4.30
2019-01-05T15:43:19.760Z,4.37
2019-01-05T15:45:43.695Z,4.60
2019-01-05T15:48:17.179Z,4.10
2019-01-05T15:50:43.854Z,3.93
2019-01-05T15:53:22.640Z,4.07
2019-01-05T15:55:43.026Z,3.87
2019-01-05T15:58:22.339Z,3.83
2019-01-05T16:00:45.016Z,3.53
2019-01-05T16:03:08.772Z,3.07
2019-01-05T16:05:36.582Z,3.80
2019-01-05T16:08:06.629Z,3.90
2019-01-05T16:10:29.185Z,4.03
2019-01-05T16:13:11.283Z,3.80
2019-01-05T16:15:46.882Z,3.47
2019-01-05T16:18:08.768Z,3.90
2019-01-05T16:20:47.668Z,3.63
2019-01-05T16:23:10.745Z,3.23
2019-01-05T16:25:33.819Z,5.73
2019-01-05T16:27:56.332Z,4.07
2019-01-05T16:30:22.731Z,3.20
2019-01-05T16:32:45.078Z,3.60
2019-01-05T16:35:14.914Z,4.10
2019-01-05T16:37:53.728Z,4.10
2019-01-05T16:40:23.350Z,4.13
2019-01-05T16:42:43.666Z,4.20
2019-01-05T16:45:16.406Z,4.43
2019-01-05T16:47:43.246Z,4.23
2019-01-05T16:50:14.487Z,4.00
2019-01-05T16:52:36.829Z,4.33
2019-01-05T16:55:00.921Z,4.20
2019-01-05T16:57:23.276Z,4.40
2019-01-05T16:59:52.654Z,4.13
2019-01-05T17:02:19.221Z,4.10
2019-01-05T17:04:41.444Z,4.30
2019-01-05T17:07:14.888Z,4.40
2019-01-05T17:09:31.734Z,4.47
2019-01-05T17:11:50.027Z,4.00
2019-01-05T17:14:12.255Z,3.80
2019-01-05T17:16:35.857Z,4.50
2019-01-05T17:18:49.107Z,3.60
2019-01-05T17:21:12.743Z,3.93
2019-01-05T17:23:39.181Z,4.57
2019-01-05T17:26:03.149Z,4.30
2019-01-05T17:28:42.418Z,4.93
2019-01-05T17:31:09.797Z,5.00
2019-01-05T17:33:32.446Z,5.27
2019-01-05T17:35:55.131Z,5.50
2019-01-05T17:38:16.818Z,5.30
2019-01-05T17:40:46.268Z,4.90
2019-01-05T17:43:08.760Z,5.63
2019-01-05T17:45:32.484Z,4.50
2019-01-05T17:48:01.980Z,4.50
2019-01-05T17:50:24.339Z,5.30
2019-01-05T17:52:57.516Z,5.20
2019-01-05T17:55:35.759Z,5.60
2019-01-05T17:58:08.100Z,5.17
2019-01-05T18:00:47.571Z,5.03
2019-01-05T18:03:26.587Z,6.60
2019-01-05T18:05:53.832Z,5.60
2019-01-05T18:08:16.197Z,6.93
2019-01-05T18:10:41.777Z,5.10
2019-01-05T18:13:03.141Z,6.33
2019-01-05T18:15:29.513Z,6.93
2019-01-05T18:17:52.066Z,6.13
2019-01-05T18:20:34.776Z,7.10
2019-01-05T18:23:13.963Z,7.30
2019-01-05T18:25:38.174Z,7.20
2019-01-05T18:28:01.845Z,6.30
2019-01-05T18:30:24.573Z,6.37
2019-01-05T18:32:47.255Z,7.40
2019-01-05T18:35:10.185Z,6.90
2019-01-05T18:37:40.485Z,6.60
2019-01-05T18:40:04.270Z,7.90
2019-01-05T18:43:09.069Z,7.20
2019-01-05T18:45:32.124Z,7.20
2019-01-05T18:47:55.510Z,7.53
2019-01-05T18:51:07.072Z,6.80
2019-01-05T18:54:16.759Z,6.80
2019-01-05T18:59:26.648Z,7.03
2019-01-05T19:02:04.910Z,6.40
2019-01-05T19:04:44.405Z,6.80
2019-01-05T19:07:11.968Z,6.60
2019-01-05T19:09:56.504Z,6.50
2019-01-05T19:12:19.613Z,7.27
2019-01-05T19:14:56.630Z,6.20
2019-01-05T19:17:25.659Z,7.43
2019-01-05T19:20:08.018Z,6.80
2019-01-05T19:22:43.808Z,7.20
2019-01-05T19:29:17.259Z,7.60
2019-01-05T19:31:54.364Z,7.37
2019-01-05T19:34:32.350Z,8.40
2019-01-05T19:37:28.089Z,8.30
2019-01-05T19:39:50.581Z,9.90
2019-01-05T19:55:42.134Z,7.93
2019-01-05T20:09:46.911Z,7.20
2019-01-05T20:12:09.276Z,7.63
2019-01-05T20:15:08.665Z,7.87
2019-01-05T20:17:59.291Z,8.80
2019-01-05T20:21:03.892Z,10.77
2019-01-05T20:23:52.143Z,8.57
2019-01-05T20:26:10.998Z,11.30
2019-01-05T20:29:06.081Z,7.97
2019-01-05T20:31:27.554Z,7.60
2019-01-05T20:33:50.369Z,7.90
2019-01-05T20:36:49.218Z,11.97
2019-01-05T20:39:34.222Z,8.30
2019-01-05T20:45:53.794Z,9.43
2019-01-05T20:48:17.349Z,11.03
2019-01-05T20:53:42.375Z,18.00
2019-01-05T21:09:37.388Z,8.70
2019-01-05T21:13:15.101Z,8.10
2019-01-05T21:15:38.978Z,7.77
2019-01-05T21:18:05.005Z,7.43
2019-01-05T21:20:28.877Z,5.53
2019-01-05T21:23:04.896Z,6.20
2019-01-05T21:25:38.382Z,5.37
2019-01-05T21:28:03.350Z,6.10
2019-01-05T21:30:38.993Z,5.60
2019-01-05T21:33:25.681Z,5.90
2019-01-05T21:35:43.495Z,4.73
2019-01-05T21:38:05.895Z,4.83
2019-01-05T21:40:43.138Z,5.70
2019-01-05T21:43:06.306Z,5.27
2019-01-05T21:45:28.886Z,5.80
2019-01-05T21:47:59.237Z,5.70
2019-01-05T21:50:29.201Z,6.57
2019-01-05T21:53:00.681Z,6.50
2019-01-05T21:55:33.973Z,5.97
2019-01-05T21:58:03.679Z,6.47
2019-01-05T22:00:42.131Z,6.50
2019-01-05T22:03:12.451Z,7.13
2019-01-05T22:05:39.135Z,7.10
2019-01-05T22:08:05.146Z,7.10
2019-01-05T22:10:27.568Z,6.93
2019-01-05T22:12:59.151Z,6.10
2019-01-05T22:15:38.066Z,6.40
2019-01-05T22:18:05.212Z,6.33
2019-01-05T22:20:27.871Z,6.37
2019-01-05T22:25:41.747Z,7.10
2019-01-05T22:35:19.849Z,6.30
2019-01-05T22:38:49.342Z,7.63
2019-01-05T22:41:12.141Z,21.03
2019-01-05T22:43:39.681Z,9.47
2019-01-05T22:45:59.003Z,19.67
2019-01-05T22:48:27.985Z,28.13
2019-01-05T22:50:50.674Z,15.90
2019-01-05T22:53:14.501Z,21.00
2019-01-05T22:55:40.264Z,9.37
2019-01-05T22:58:02.502Z,6.03
2019-01-05T23:00:27.187Z,6.93
2019-01-05T23:03:07.025Z,7.47
2019-01-05T23:05:30.154Z,5.23
2019-01-05T23:07:52.761Z,5.60
2019-01-05T23:10:17.181Z,7.00
2019-01-05T23:12:40.947Z,7.27
2019-01-05T23:15:04.677Z,5.20
2019-01-05T23:17:32.270Z,6.00
2019-01-05T23:19:54.705Z,5.23
2019-01-05T23:22:16.381Z,4.80
2019-01-05T23:24:52.261Z,4.80
2019-01-05T23:27:14.249Z,5.23
2019-01-05T23:29:37.130Z,5.60
2019-01-05T23:32:10.614Z,6.00
2019-01-05T23:34:43.313Z,6.07
2019-01-05T23:37:19.465Z,5.10
2019-01-05T23:39:43.037Z,5.70
2019-01-05T23:42:05.686Z,6.30
2019-01-05T23:44:31.057Z,12.83
2019-01-05T23:47:04.255Z,21.83
2019-01-05T23:49:30.866Z,10.07
2019-01-05T23:51:58.388Z,10.77
2019-01-05T23:54:21.142Z,7.90
2019-01-05T23:56:43.792Z,7.50
2019-01-05T23:59:26.233Z,8.90
